sensor_id;sensor_type;location;lat;lon;timestamp;temperature;humidity
31455;DHT22;18084;53.028;8.834;2023-05-28T04:43:54;12.70;99.90
31455;DHT22;18084;53.028;8.834;2023-05-28T04:46:22;12.10;99.90
31455;DHT22;18084;53.028;8.834;2023-05-28T04:48:51;12.40;99.90
31455;DHT22;18084;53.028;8.834;2023-05-28T04:51:17;12.50;99.90
31455;DHT22;18084;53.028;8.834;2023-05-28T04:53:43;12.80;99.90
31455;DHT22;18084;53.028;8.834;2023-05-28T04:56:09;13.00;99.90
31455;DHT22;18084;53.028;8.834;2023-05-28T04:58:35;13.20;99.90
31455;DHT22;18084;53.028;8.834;2023-05-28T05:01:01;13.30;99.90
31455;DHT22;18084;53.028;8.834;2023-05-28T05:03:27;13.40;99.90
31455;DHT22;18084;53.028;8.834;2023-05-28T05:05:54;13.60;99.90
31455;DHT22;18084;53.028;8.834;2023-05-28T05:08:19;13.70;99.90
31455;DHT22;18084;53.028;8.834;2023-05-28T05:10:45;13.80;99.90
31455;DHT22;18084;53.028;8.834;2023-05-28T05:13:12;14.00;99.90
31455;DHT22;18084;53.028;8.834;2023-05-28T05:15:38;14.40;99.90
31455;DHT22;18084;53.028;8.834;2023-05-28T05:18:03;14.80;99.90
31455;DHT22;18084;53.028;8.834;2023-05-28T05:20:29;15.20;94.80
31455;DHT22;18084;53.028;8.834;2023-05-28T05:22:54;15.40;1.00
31455;DHT22;18084;53.028;8.834;2023-05-28T05:25:21;15.80;1.00
31455;DHT22;18084;53.028;8.834;2023-05-28T05:27:49;15.90;1.00
31455;DHT22;18084;53.028;8.834;2023-05-28T05:30:15;15.70;99.90
31455;DHT22;18084;53.028;8.834;2023-05-28T05:32:41;15.70;1.00
31455;DHT22;18084;53.028;8.834;2023-05-28T05:35:06;15.70;1.00
31455;DHT22;18084;53.028;8.834;2023-05-28T05:37:32;15.50;1.00
31455;DHT22;18084;53.028;8.834;2023-05-28T05:39:57;15.50;1.00
31455;DHT22;18084;53.028;8.834;2023-05-28T05:42:23;16.30;1.00
31455;DHT22;18084;53.028;8.834;2023-05-28T05:44:48;15.20;1.00
31455;DHT22;18084;53.028;8.834;2023-05-28T05:47:14;15.50;1.00
31455;DHT22;18084;53.028;8.834;2023-05-28T05:49:39;15.70;1.00
31455;DHT22;18084;53.028;8.834;2023-05-28T05:52:05;15.70;1.00
31455;DHT22;18084;53.028;8.834;2023-05-28T05:54:30;15.70;1.00
31455;DHT22;18084;53.028;8.834;2023-05-28T05:56:56;15.10;1.00
31455;DHT22;18084;53.028;8.834;2023-05-28T05:59:22;15.50;1.00
31455;DHT22;18084;53.028;8.834;2023-05-28T06:01:48;15.20;1.00
31455;DHT22;18084;53.028;8.834;2023-05-28T06:04:13;15.40;1.00
31455;DHT22;18084;53.028;8.834;2023-05-28T06:06:39;15.10;1.00
31455;DHT22;18084;53.028;8.834;2023-05-28T06:09:05;15.30;1.00
31455;DHT22;18084;53.028;8.834;2023-05-28T06:11:31;17.30;1.00
31455;DHT22;18084;53.028;8.834;2023-05-28T06:13:57;15.10;1.00
31455;DHT22;18084;53.028;8.834;2023-05-28T06:16:23;15.50;1.00
31455;DHT22;18084;53.028;8.834;2023-05-28T06:18:50;15.80;1.00
31455;DHT22;18084;53.028;8.834;2023-05-28T06:21:15;16.40;1.00
31455;DHT22;18084;53.028;8.834;2023-05-28T06:23:41;16.60;99.90
31455;DHT22;18084;53.028;8.834;2023-05-28T06:26:07;17.50;99.90
31455;DHT22;18084;53.028;8.834;2023-05-28T06:28:35;18.20;99.90
31455;DHT22;18084;53.028;8.834;2023-05-28T06:31:01;18.60;1.00
31455;DHT22;18084;53.028;8.834;2023-05-28T06:33:28;18.50;1.00
31455;DHT22;18084;53.028;8.834;2023-05-28T06:35:53;18.90;99.90
31455;DHT22;18084;53.028;8.834;2023-05-28T06:38:19;18.90;99.90
31455;DHT22;18084;53.028;8.834;2023-05-28T06:40:44;19.10;1.00
31455;DHT22;18084;53.028;8.834;2023-05-28T06:43:10;19.10;99.90
31455;DHT22;18084;53.028;8.834;2023-05-28T06:45:35;18.90;99.90
31455;DHT22;18084;53.028;8.834;2023-05-28T06:48:01;18.80;1.00
31455;DHT22;18084;53.028;8.834;2023-05-28T06:50:28;18.90;99.90
31455;DHT22;18084;53.028;8.834;2023-05-28T06:52:53;18.70;1.00
31455;DHT22;18084;53.028;8.834;2023-05-28T06:55:19;18.40;99.90
31455;DHT22;18084;53.028;8.834;2023-05-28T06:57:44;18.00;99.90
31455;DHT22;18084;53.028;8.834;2023-05-28T07:00:10;17.60;1.00
31455;DHT22;18084;53.028;8.834;2023-05-28T07:02:39;17.20;12.70
31455;DHT22;18084;53.028;8.834;2023-05-28T07:05:05;16.90;99.90
31455;DHT22;18084;53.028;8.834;2023-05-28T07:07:31;16.70;99.90
31455;DHT22;18084;53.028;8.834;2023-05-28T07:09:57;16.50;99.90
31455;DHT22;18084;53.028;8.834;2023-05-28T07:12:22;16.40;99.90
31455;DHT22;18084;53.028;8.834;2023-05-28T07:14:48;16.40;99.90
31455;DHT22;18084;53.028;8.834;2023-05-28T07:17:13;17.90;1.00
31455;DHT22;18084;53.028;8.834;2023-05-28T07:19:39;17.00;99.90
31455;DHT22;18084;53.028;8.834;2023-05-28T07:22:05;17.60;99.90
31455;DHT22;18084;53.028;8.834;2023-05-28T07:24:30;18.90;1.00
31455;DHT22;18084;53.028;8.834;2023-05-28T07:26:56;19.40;1.00
31455;DHT22;18084;53.028;8.834;2023-05-28T07:29:21;19.60;99.90
31455;DHT22;18084;53.028;8.834;2023-05-28T07:31:47;20.50;1.00
31455;DHT22;18084;53.028;8.834;2023-05-28T07:34:12;20.90;1.00
31455;DHT22;18084;53.028;8.834;2023-05-28T07:36:38;21.30;99.90
31455;DHT22;18084;53.028;8.834;2023-05-28T07:39:04;20.60;99.90
31455;DHT22;18084;53.028;8.834;2023-05-28T07:41:29;20.90;99.90
31455;DHT22;18084;53.028;8.834;2023-05-28T07:43:55;21.80;1.00
31455;DHT22;18084;53.028;8.834;2023-05-28T07:46:21;21.60;99.90
31455;DHT22;18084;53.028;8.834;2023-05-28T07:48:47;21.60;99.90
31455;DHT22;18084;53.028;8.834;2023-05-28T07:51:13;21.10;1.00
31455;DHT22;18084;53.028;8.834;2023-05-28T07:53:40;21.40;99.90
31455;DHT22;18084;53.028;8.834;2023-05-28T07:56:06;21.50;99.90
31455;DHT22;18084;53.028;8.834;2023-05-28T07:58:31;22.10;39.20
31455;DHT22;18084;53.028;8.834;2023-05-28T08:00:57;21.90;14.90
31455;DHT22;18084;53.028;8.834;2023-05-28T08:03:22;22.10;1.00
31455;DHT22;18084;53.028;8.834;2023-05-28T08:05:49;21.50;1.00
31455;DHT22;18084;53.028;8.834;2023-05-28T08:08:15;22.70;1.00
31455;DHT22;18084;53.028;8.834;2023-05-28T08:10:40;21.90;1.00
31455;DHT22;18084;53.028;8.834;2023-05-28T08:13:06;22.70;1.00
31455;DHT22;18084;53.028;8.834;2023-05-28T08:15:31;23.20;99.90
31455;DHT22;18084;53.028;8.834;2023-05-28T08:17:57;22.90;99.90
31455;DHT22;18084;53.028;8.834;2023-05-28T08:20:22;25.60;26.40
31455;DHT22;18084;53.028;8.834;2023-05-28T08:22:48;24.50;1.00
31455;DHT22;18084;53.028;8.834;2023-05-28T08:25:13;24.60;1.00
31455;DHT22;18084;53.028;8.834;2023-05-28T08:27:39;24.70;1.00
31455;DHT22;18084;53.028;8.834;2023-05-28T08:30:05;25.40;1.00
31455;DHT22;18084;53.028;8.834;2023-05-28T08:32:31;24.50;1.00
31455;DHT22;18084;53.028;8.834;2023-05-28T08:34:56;26.10;1.00
31455;DHT22;18084;53.028;8.834;2023-05-28T08:37:22;24.50;1.00
31455;DHT22;18084;53.028;8.834;2023-05-28T08:39:47;25.00;1.00
31455;DHT22;18084;53.028;8.834;2023-05-28T08:42:13;25.30;1.00
31455;DHT22;18084;53.028;8.834;2023-05-28T08:44:38;25.20;1.00
31455;DHT22;18084;53.028;8.834;2023-05-28T08:47:04;25.00;1.00
31455;DHT22;18084;53.028;8.834;2023-05-28T08:49:30;24.90;1.00
31455;DHT22;18084;53.028;8.834;2023-05-28T08:51:56;25.00;1.00
31455;DHT22;18084;53.028;8.834;2023-05-28T08:54:24;25.20;1.00
31455;DHT22;18084;53.028;8.834;2023-05-28T08:56:50;24.60;1.00
31455;DHT22;18084;53.028;8.834;2023-05-28T08:59:16;24.80;1.00
31455;DHT22;18084;53.028;8.834;2023-05-28T09:01:41;24.80;1.00
31455;DHT22;18084;53.028;8.834;2023-05-28T09:04:07;25.30;99.90
31455;DHT22;18084;53.028;8.834;2023-05-28T09:06:35;25.40;99.90
31455;DHT22;18084;53.028;8.834;2023-05-28T09:09:01;25.30;99.90
31455;DHT22;18084;53.028;8.834;2023-05-28T09:11:27;25.40;99.90
31455;DHT22;18084;53.028;8.834;2023-05-28T09:13:52;24.90;99.90
31455;DHT22;18084;53.028;8.834;2023-05-28T09:16:19;25.20;1.00
31455;DHT22;18084;53.028;8.834;2023-05-28T09:18:48;25.00;1.00
31455;DHT22;18084;53.028;8.834;2023-05-28T09:21:13;24.90;99.90
31455;DHT22;18084;53.028;8.834;2023-05-28T09:23:39;25.30;99.90
31455;DHT22;18084;53.028;8.834;2023-05-28T09:26:08;25.00;99.90
31455;DHT22;18084;53.028;8.834;2023-05-28T09:28:34;24.80;99.90
31455;DHT22;18084;53.028;8.834;2023-05-28T09:31:03;25.10;99.90
31455;DHT22;18084;53.028;8.834;2023-05-28T09:33:30;25.00;99.90
31455;DHT22;18084;53.028;8.834;2023-05-28T09:35:59;25.00;99.90
31455;DHT22;18084;53.028;8.834;2023-05-28T09:38:25;25.00;99.90
31455;DHT22;18084;53.028;8.834;2023-05-28T09:40:53;24.80;99.90
31455;DHT22;18084;53.028;8.834;2023-05-28T09:43:20;24.90;1.00
31455;DHT22;18084;53.028;8.834;2023-05-28T09:45:51;25.40;1.00
31455;DHT22;18084;53.028;8.834;2023-05-28T09:48:17;25.00;1.00
31455;DHT22;18084;53.028;8.834;2023-05-28T09:50:42;25.20;1.00
31455;DHT22;18084;53.028;8.834;2023-05-28T09:53:08;25.50;99.90
31455;DHT22;18084;53.028;8.834;2023-05-28T09:55:33;25.40;99.90
31455;DHT22;18084;53.028;8.834;2023-05-28T09:58:01;24.90;99.90
31455;DHT22;18084;53.028;8.834;2023-05-28T10:03:00;25.00;1.00
31455;DHT22;18084;53.028;8.834;2023-05-28T10:05:31;24.80;99.90
31455;DHT22;18084;53.028;8.834;2023-05-28T10:07:57;24.80;99.90
31455;DHT22;18084;53.028;8.834;2023-05-28T10:10:23;24.80;99.90
31455;DHT22;18084;53.028;8.834;2023-05-28T10:12:51;24.30;99.90
31455;DHT22;18084;53.028;8.834;2023-05-28T10:15:19;24.40;99.90
31455;DHT22;18084;53.028;8.834;2023-05-28T10:17:44;24.60;99.90
31455;DHT22;18084;53.028;8.834;2023-05-28T10:20:10;24.40;99.90
31455;DHT22;18084;53.028;8.834;2023-05-28T10:22:37;24.10;1.00
31455;DHT22;18084;53.028;8.834;2023-05-28T10:25:03;24.40;1.00
31455;DHT22;18084;53.028;8.834;2023-05-28T10:27:29;24.70;1.00
31455;DHT22;18084;53.028;8.834;2023-05-28T10:29:57;24.30;99.90
31455;DHT22;18084;53.028;8.834;2023-05-28T10:32:27;24.30;99.90
31455;DHT22;18084;53.028;8.834;2023-05-28T10:34:59;24.20;99.90
31455;DHT22;18084;53.028;8.834;2023-05-28T10:37:25;24.10;1.00
31455;DHT22;18084;53.028;8.834;2023-05-28T10:39:50;24.40;99.90
31455;DHT22;18084;53.028;8.834;2023-05-28T10:42:17;24.80;99.90
31455;DHT22;18084;53.028;8.834;2023-05-28T10:45:04;24.80;99.90
31455;DHT22;18084;53.028;8.834;2023-05-28T10:47:33;24.50;99.90
31455;DHT22;18084;53.028;8.834;2023-05-28T10:52:33;25.20;99.90
31455;DHT22;18084;53.028;8.834;2023-05-28T10:55:00;24.80;99.90
31455;DHT22;18084;53.028;8.834;2023-05-28T10:57:26;25.30;99.90
31455;DHT22;18084;53.028;8.834;2023-05-28T11:00:03;25.50;99.90
31455;DHT22;18084;53.028;8.834;2023-05-28T11:02:35;25.40;99.90
31455;DHT22;18084;53.028;8.834;2023-05-28T11:05:01;25.40;99.90
31455;DHT22;18084;53.028;8.834;2023-05-28T11:07:29;25.40;99.90
31455;DHT22;18084;53.028;8.834;2023-05-28T11:09:55;25.40;99.90
31455;DHT22;18084;53.028;8.834;2023-05-28T11:12:21;25.30;99.90
31455;DHT22;18084;53.028;8.834;2023-05-28T11:14:47;24.70;99.90
31455;DHT22;18084;53.028;8.834;2023-05-28T11:17:12;24.40;99.90
31455;DHT22;18084;53.028;8.834;2023-05-28T11:19:42;24.20;99.90
31455;DHT22;18084;53.028;8.834;2023-05-28T11:22:08;24.40;99.90
31455;DHT22;18084;53.028;8.834;2023-05-28T11:24:53;24.40;99.90
31455;DHT22;18084;53.028;8.834;2023-05-28T11:27:22;24.60;99.90
31455;DHT22;18084;53.028;8.834;2023-05-28T11:29:48;24.80;99.90
31455;DHT22;18084;53.028;8.834;2023-05-28T11:32:14;24.70;99.90
31455;DHT22;18084;53.028;8.834;2023-05-28T11:34:39;24.60;99.90
31455;DHT22;18084;53.028;8.834;2023-05-28T11:37:05;25.20;99.90
31455;DHT22;18084;53.028;8.834;2023-05-28T11:39:32;25.50;99.90
31455;DHT22;18084;53.028;8.834;2023-05-28T11:41:58;25.90;99.90
31455;DHT22;18084;53.028;8.834;2023-05-28T11:44:24;25.70;99.90
31455;DHT22;18084;53.028;8.834;2023-05-28T11:46:50;25.40;99.90
31455;DHT22;18084;53.028;8.834;2023-05-28T11:49:16;25.40;99.90
31455;DHT22;18084;53.028;8.834;2023-05-28T11:51:41;25.60;99.90
31455;DHT22;18084;53.028;8.834;2023-05-28T11:54:07;25.50;99.90
31455;DHT22;18084;53.028;8.834;2023-05-28T11:56:33;25.80;99.90
31455;DHT22;18084;53.028;8.834;2023-05-28T11:58:59;25.30;99.90
31455;DHT22;18084;53.028;8.834;2023-05-28T12:01:24;25.00;99.90
31455;DHT22;18084;53.028;8.834;2023-05-28T12:03:50;24.70;99.90
31455;DHT22;18084;53.028;8.834;2023-05-28T12:06:15;24.80;99.90
31455;DHT22;18084;53.028;8.834;2023-05-28T12:08:41;24.80;99.90
31455;DHT22;18084;53.028;8.834;2023-05-28T12:11:09;25.00;99.90
31455;DHT22;18084;53.028;8.834;2023-05-28T12:13:35;25.30;99.90
31455;DHT22;18084;53.028;8.834;2023-05-28T12:16:08;25.40;99.90
31455;DHT22;18084;53.028;8.834;2023-05-28T12:18:34;25.40;99.90
31455;DHT22;18084;53.028;8.834;2023-05-28T12:21:03;25.60;99.90
31455;DHT22;18084;53.028;8.834;2023-05-28T12:23:29;25.80;99.90
31455;DHT22;18084;53.028;8.834;2023-05-28T12:25:56;26.10;99.90
31455;DHT22;18084;53.028;8.834;2023-05-28T12:28:22;25.90;99.90
31455;DHT22;18084;53.028;8.834;2023-05-28T12:30:51;25.80;99.90
31455;DHT22;18084;53.028;8.834;2023-05-28T12:33:18;25.90;99.90
31455;DHT22;18084;53.028;8.834;2023-05-28T12:35:44;25.40;99.90
31455;DHT22;18084;53.028;8.834;2023-05-28T12:38:11;25.60;99.90
31455;DHT22;18084;53.028;8.834;2023-05-28T12:40:37;25.60;99.90
31455;DHT22;18084;53.028;8.834;2023-05-28T12:43:02;25.40;99.90
31455;DHT22;18084;53.028;8.834;2023-05-28T12:45:28;25.30;99.90
31455;DHT22;18084;53.028;8.834;2023-05-28T12:47:53;25.60;99.90
31455;DHT22;18084;53.028;8.834;2023-05-28T12:50:19;25.70;99.90
31455;DHT22;18084;53.028;8.834;2023-05-28T12:52:45;25.80;99.90
31455;DHT22;18084;53.028;8.834;2023-05-28T12:55:14;25.90;99.90
31455;DHT22;18084;53.028;8.834;2023-05-28T12:57:45;25.70;99.90
31455;DHT22;18084;53.028;8.834;2023-05-28T13:00:11;25.80;99.90
31455;DHT22;18084;53.028;8.834;2023-05-28T13:02:37;25.80;99.90
31455;DHT22;18084;53.028;8.834;2023-05-28T13:05:02;25.80;99.90
31455;DHT22;18084;53.028;8.834;2023-05-28T13:07:28;25.80;99.90
31455;DHT22;18084;53.028;8.834;2023-05-28T13:09:53;25.80;99.90
31455;DHT22;18084;53.028;8.834;2023-05-28T13:12:19;25.90;99.90
31455;DHT22;18084;53.028;8.834;2023-05-28T13:14:44;25.90;99.90
31455;DHT22;18084;53.028;8.834;2023-05-28T13:17:10;25.40;99.90
31455;DHT22;18084;53.028;8.834;2023-05-28T13:19:35;25.30;99.90
31455;DHT22;18084;53.028;8.834;2023-05-28T13:22:01;25.50;99.90
31455;DHT22;18084;53.028;8.834;2023-05-28T13:24:26;25.70;99.90
31455;DHT22;18084;53.028;8.834;2023-05-28T13:26:52;25.50;99.90
31455;DHT22;18084;53.028;8.834;2023-05-28T13:29:17;25.50;99.90
31455;DHT22;18084;53.028;8.834;2023-05-28T13:31:43;25.20;99.90
31455;DHT22;18084;53.028;8.834;2023-05-28T13:34:08;25.40;99.90
31455;DHT22;18084;53.028;8.834;2023-05-28T13:36:34;25.40;99.90
31455;DHT22;18084;53.028;8.834;2023-05-28T13:39:00;25.70;99.90
31455;DHT22;18084;53.028;8.834;2023-05-28T13:41:25;25.80;99.90
31455;DHT22;18084;53.028;8.834;2023-05-28T13:43:51;25.80;99.90
31455;DHT22;18084;53.028;8.834;2023-05-28T13:46:19;25.70;99.90
31455;DHT22;18084;53.028;8.834;2023-05-28T13:48:44;25.60;99.90
31455;DHT22;18084;53.028;8.834;2023-05-28T13:51:10;25.40;99.90
31455;DHT22;18084;53.028;8.834;2023-05-28T13:53:37;25.60;99.90
31455;DHT22;18084;53.028;8.834;2023-05-28T13:56:03;25.50;99.90
31455;DHT22;18084;53.028;8.834;2023-05-28T13:58:29;25.50;99.90
31455;DHT22;18084;53.028;8.834;2023-05-28T14:06:03;25.40;99.90
31455;DHT22;18084;53.028;8.834;2023-05-28T14:08:29;25.20;99.90
31455;DHT22;18084;53.028;8.834;2023-05-28T14:10:54;25.30;99.90
31455;DHT22;18084;53.028;8.834;2023-05-28T14:13:19;25.40;99.90
31455;DHT22;18084;53.028;8.834;2023-05-28T14:15:45;25.30;99.90
31455;DHT22;18084;53.028;8.834;2023-05-28T14:18:11;25.20;99.90
31455;DHT22;18084;53.028;8.834;2023-05-28T14:20:37;25.40;99.90
31455;DHT22;18084;53.028;8.834;2023-05-28T14:25:30;25.10;99.90
31455;DHT22;18084;53.028;8.834;2023-05-28T14:28:02;28.40;99.90
31455;DHT22;18084;53.028;8.834;2023-05-28T14:30:32;24.80;99.90
31455;DHT22;18084;53.028;8.834;2023-05-28T14:32:58;25.10;99.90
31455;DHT22;18084;53.028;8.834;2023-05-28T14:35:44;25.20;99.90
31455;DHT22;18084;53.028;8.834;2023-05-28T14:38:22;25.00;99.90
31455;DHT22;18084;53.028;8.834;2023-05-28T14:40:52;24.90;99.90
31455;DHT22;18084;53.028;8.834;2023-05-28T14:46:19;25.20;99.90
31455;DHT22;18084;53.028;8.834;2023-05-28T14:51:39;25.10;99.90
31455;DHT22;18084;53.028;8.834;2023-05-28T14:54:05;24.90;99.90
31455;DHT22;18084;53.028;8.834;2023-05-28T14:56:30;24.70;99.90
31455;DHT22;18084;53.028;8.834;2023-05-28T14:58:56;24.90;99.90
31455;DHT22;18084;53.028;8.834;2023-05-28T15:01:21;24.60;99.90
31455;DHT22;18084;53.028;8.834;2023-05-28T15:03:46;26.40;99.90
31455;DHT22;18084;53.028;8.834;2023-05-28T15:06:12;25.70;99.90
31455;DHT22;18084;53.028;8.834;2023-05-28T15:08:37;24.80;99.90
31455;DHT22;18084;53.028;8.834;2023-05-28T15:11:03;24.60;99.90
31455;DHT22;18084;53.028;8.834;2023-05-28T15:13:29;24.50;99.90
31455;DHT22;18084;53.028;8.834;2023-05-28T15:15:54;24.60;99.90
31455;DHT22;18084;53.028;8.834;2023-05-28T15:18:20;24.60;99.90
31455;DHT22;18084;53.028;8.834;2023-05-28T15:20:46;24.60;99.90
31455;DHT22;18084;53.028;8.834;2023-05-28T15:23:11;24.50;99.90
31455;DHT22;18084;53.028;8.834;2023-05-28T15:25:37;24.30;99.90
31455;DHT22;18084;53.028;8.834;2023-05-28T15:28:02;24.40;99.90
31455;DHT22;18084;53.028;8.834;2023-05-28T15:30:28;24.50;99.90
31455;DHT22;18084;53.028;8.834;2023-05-28T15:32:54;24.70;99.90
31455;DHT22;18084;53.028;8.834;2023-05-28T15:35:25;24.70;99.90
31455;DHT22;18084;53.028;8.834;2023-05-28T15:37:51;24.70;99.90
31455;DHT22;18084;53.028;8.834;2023-05-28T15:40:17;24.60;99.90
31455;DHT22;18084;53.028;8.834;2023-05-28T15:42:42;24.60;99.90
31455;DHT22;18084;53.028;8.834;2023-05-28T15:45:08;24.50;99.90
31455;DHT22;18084;53.028;8.834;2023-05-28T15:47:34;24.60;99.90
31455;DHT22;18084;53.028;8.834;2023-05-28T15:49:59;24.40;99.90
31455;DHT22;18084;53.028;8.834;2023-05-28T15:52:25;24.30;99.90
31455;DHT22;18084;53.028;8.834;2023-05-28T15:54:50;24.30;99.90
31455;DHT22;18084;53.028;8.834;2023-05-28T15:57:16;24.30;99.90
31455;DHT22;18084;53.028;8.834;2023-05-28T15:59:41;24.60;99.90
31455;DHT22;18084;53.028;8.834;2023-05-28T16:02:09;24.50;99.90
31455;DHT22;18084;53.028;8.834;2023-05-28T16:04:36;24.50;99.90
31455;DHT22;18084;53.028;8.834;2023-05-28T16:07:02;24.30;99.90
31455;DHT22;18084;53.028;8.834;2023-05-28T16:09:27;24.30;99.90
31455;DHT22;18084;53.028;8.834;2023-05-28T16:11:54;24.30;99.90
31455;DHT22;18084;53.028;8.834;2023-05-28T16:14:20;24.20;99.90
31455;DHT22;18084;53.028;8.834;2023-05-28T16:16:46;24.10;99.90
31455;DHT22;18084;53.028;8.834;2023-05-28T16:19:15;24.20;99.90
31455;DHT22;18084;53.028;8.834;2023-05-28T16:21:41;24.30;99.90
31455;DHT22;18084;53.028;8.834;2023-05-28T16:24:06;24.20;99.90
31455;DHT22;18084;53.028;8.834;2023-05-28T16:26:32;24.20;99.90
31455;DHT22;18084;53.028;8.834;2023-05-28T16:28:58;24.00;99.90
31455;DHT22;18084;53.028;8.834;2023-05-28T16:31:23;23.50;99.90
31455;DHT22;18084;53.028;8.834;2023-05-28T16:33:50;23.30;99.90
31455;DHT22;18084;53.028;8.834;2023-05-28T16:36:16;23.40;99.90
31455;DHT22;18084;53.028;8.834;2023-05-28T16:38:41;23.20;99.90
31455;DHT22;18084;53.028;8.834;2023-05-28T16:41:07;23.20;99.90
31455;DHT22;18084;53.028;8.834;2023-05-28T16:43:33;23.20;99.90
31455;DHT22;18084;53.028;8.834;2023-05-28T16:45:58;23.10;99.90
31455;DHT22;18084;53.028;8.834;2023-05-28T16:48:25;23.10;99.90
31455;DHT22;18084;53.028;8.834;2023-05-28T16:50:50;22.80;99.90
31455;DHT22;18084;53.028;8.834;2023-05-28T16:53:16;22.80;99.90
31455;DHT22;18084;53.028;8.834;2023-05-28T16:55:42;22.60;99.90
31455;DHT22;18084;53.028;8.834;2023-05-28T16:58:08;22.50;99.90
31455;DHT22;18084;53.028;8.834;2023-05-28T17:00:33;22.20;99.90
31455;DHT22;18084;53.028;8.834;2023-05-28T17:02:59;21.80;99.90
31455;DHT22;18084;53.028;8.834;2023-05-28T17:05:24;21.90;99.90
31455;DHT22;18084;53.028;8.834;2023-05-28T17:07:50;21.70;99.90
31455;DHT22;18084;53.028;8.834;2023-05-28T17:10:16;21.70;99.90
31455;DHT22;18084;53.028;8.834;2023-05-28T17:12:41;21.60;1.00
31455;DHT22;18084;53.028;8.834;2023-05-28T17:15:07;21.60;1.00
31455;DHT22;18084;53.028;8.834;2023-05-28T17:17:36;21.50;1.00
31455;DHT22;18084;53.028;8.834;2023-05-28T17:20:01;21.50;1.00
31455;DHT22;18084;53.028;8.834;2023-05-28T17:22:33;21.40;1.00
31455;DHT22;18084;53.028;8.834;2023-05-28T17:25:01;21.30;1.00
31455;DHT22;18084;53.028;8.834;2023-05-28T17:27:26;21.00;1.00
31455;DHT22;18084;53.028;8.834;2023-05-28T17:29:52;21.10;1.00
31455;DHT22;18084;53.028;8.834;2023-05-28T17:32:17;21.10;1.00
31455;DHT22;18084;53.028;8.834;2023-05-28T17:34:43;21.10;13.60
31455;DHT22;18084;53.028;8.834;2023-05-28T17:37:09;23.90;15.60
31455;DHT22;18084;53.028;8.834;2023-05-28T17:39:35;21.00;28.80
31455;DHT22;18084;53.028;8.834;2023-05-28T17:42:00;21.00;39.40
31455;DHT22;18084;53.028;8.834;2023-05-28T17:44:26;21.30;28.10
31455;DHT22;18084;53.028;8.834;2023-05-28T17:46:54;20.90;99.90
31455;DHT22;18084;53.028;8.834;2023-05-28T17:49:20;20.80;89.20
31455;DHT22;18084;53.028;8.834;2023-05-28T17:51:46;20.60;99.90
31455;DHT22;18084;53.028;8.834;2023-05-28T17:54:11;20.40;99.90
31455;DHT22;18084;53.028;8.834;2023-05-28T17:56:37;20.30;99.90
31455;DHT22;18084;53.028;8.834;2023-05-28T17:59:02;20.00;43.00
31455;DHT22;18084;53.028;8.834;2023-05-28T18:01:28;19.90;34.90
31455;DHT22;18084;53.028;8.834;2023-05-28T18:03:54;19.60;28.30
31455;DHT22;18084;53.028;8.834;2023-05-28T18:06:20;19.50;20.80
31455;DHT22;18084;53.028;8.834;2023-05-28T18:08:46;19.30;14.40
31455;DHT22;18084;53.028;8.834;2023-05-28T18:13:39;18.90;97.80
31455;DHT22;18084;53.028;8.834;2023-05-28T18:16:05;18.80;99.90
31455;DHT22;18084;53.028;8.834;2023-05-28T18:18:30;18.90;99.90
31455;DHT22;18084;53.028;8.834;2023-05-28T18:20:56;18.60;99.90
31455;DHT22;18084;53.028;8.834;2023-05-28T18:23:22;18.40;35.00
31455;DHT22;18084;53.028;8.834;2023-05-28T18:25:49;18.30;62.00
31455;DHT22;18084;53.028;8.834;2023-05-28T18:28:15;18.20;99.90
31455;DHT22;18084;53.028;8.834;2023-05-28T18:30:40;18.20;99.90
31455;DHT22;18084;53.028;8.834;2023-05-28T18:33:06;18.20;99.90
31455;DHT22;18084;53.028;8.834;2023-05-28T18:35:32;18.00;99.90
31455;DHT22;18084;53.028;8.834;2023-05-28T18:37:58;18.80;1.00
31455;DHT22;18084;53.028;8.834;2023-05-28T18:40:24;17.90;14.00
31455;DHT22;18084;53.028;8.834;2023-05-28T18:42:49;17.70;1.00
31455;DHT22;18084;53.028;8.834;2023-05-28T18:45:19;17.70;72.10
31455;DHT22;18084;53.028;8.834;2023-05-28T18:47:45;17.60;1.00
31455;DHT22;18084;53.028;8.834;2023-05-28T18:50:12;17.60;1.00
31455;DHT22;18084;53.028;8.834;2023-05-28T18:52:37;17.50;99.90
31455;DHT22;18084;53.028;8.834;2023-05-28T18:55:03;17.10;99.90
31455;DHT22;18084;53.028;8.834;2023-05-28T18:57:29;17.30;44.30
31455;DHT22;18084;53.028;8.834;2023-05-28T18:59:54;17.10;99.90
31455;DHT22;18084;53.028;8.834;2023-05-28T19:02:22;17.10;99.90
31455;DHT22;18084;53.028;8.834;2023-05-28T19:04:47;18.40;99.90
31455;DHT22;18084;53.028;8.834;2023-05-28T19:07:13;18.30;85.90
31455;DHT22;18084;53.028;8.834;2023-05-28T19:09:39;18.40;1.00
31455;DHT22;18084;53.028;8.834;2023-05-28T19:12:05;16.60;25.20
31455;DHT22;18084;53.028;8.834;2023-05-28T19:14:32;16.60;1.00
31455;DHT22;18084;53.028;8.834;2023-05-28T19:16:57;16.40;99.90
31455;DHT22;18084;53.028;8.834;2023-05-28T19:19:23;16.60;1.00
31455;DHT22;18084;53.028;8.834;2023-05-28T19:21:52;16.20;99.90
31455;DHT22;18084;53.028;8.834;2023-05-28T19:24:18;16.50;1.00
31455;DHT22;18084;53.028;8.834;2023-05-28T19:26:43;16.70;1.00
31455;DHT22;18084;53.028;8.834;2023-05-28T19:29:12;16.20;1.00
31455;DHT22;18084;53.028;8.834;2023-05-28T19:34:07;16.20;1.00
31455;DHT22;18084;53.028;8.834;2023-05-28T19:36:33;15.70;99.90
31455;DHT22;18084;53.028;8.834;2023-05-28T19:39:13;15.80;94.10
31455;DHT22;18084;53.028;8.834;2023-05-28T19:41:44;16.00;91.10
31455;DHT22;18084;53.028;8.834;2023-05-28T19:44:10;17.90;1.00
31455;DHT22;18084;53.028;8.834;2023-05-28T19:46:45;15.70;21.00
31455;DHT22;18084;53.028;8.834;2023-05-28T19:51:36;15.60;99.90
31455;DHT22;18084;53.028;8.834;2023-05-28T19:54:05;18.70;99.90
31455;DHT22;18084;53.028;8.834;2023-05-28T19:58:57;15.40;99.90
31455;DHT22;18084;53.028;8.834;2023-05-28T20:03:54;15.20;99.90
31455;DHT22;18084;53.028;8.834;2023-05-28T20:11:13;14.90;99.90
31455;DHT22;18084;53.028;8.834;2023-05-28T20:16:31;14.80;99.90
31455;DHT22;18084;53.028;8.834;2023-05-28T20:23:53;14.70;99.90
31455;DHT22;18084;53.028;8.834;2023-05-28T20:26:30;14.90;99.90
31455;DHT22;18084;53.028;8.834;2023-05-28T20:28:55;14.20;99.90
31455;DHT22;18084;53.028;8.834;2023-05-28T20:31:41;14.90;99.90
31455;DHT22;18084;53.028;8.834;2023-05-28T20:39:34;14.00;99.90
31455;DHT22;18084;53.028;8.834;2023-05-28T20:42:02;15.80;99.90
31455;DHT22;18084;53.028;8.834;2023-05-28T20:49:27;13.90;99.90
31455;DHT22;18084;53.028;8.834;2023-05-28T20:51:52;11.60;99.90
31455;DHT22;18084;53.028;8.834;2023-05-28T20:54:18;13.40;1.00
31455;DHT22;18084;53.028;8.834;2023-05-28T20:56:43;13.70;1.00
31455;DHT22;18084;53.028;8.834;2023-05-28T20:59:11;14.50;1.00
31455;DHT22;18084;53.028;8.834;2023-05-28T21:01:39;13.30;1.00
31455;DHT22;18084;53.028;8.834;2023-05-28T21:04:05;12.50;1.00
31455;DHT22;18084;53.028;8.834;2023-05-28T21:06:31;16.40;1.00